Terminal Aerodrome Forecast
Issued by NWS Mobile, AL

Home | Current Version | Previous Version | Text Only | Print | Product List | Glossary On
Versions: 1 2 3 4 5 6 7 8 9 10 11 12 13 14 15 16 17
000
FTUS44 KMOB 231720
TAFPNS
TAF
KPNS 231720Z 2318/2418 18017G22KT P6SM BKN016 BKN023
     FM232100 17014G22KT P6SM SCT025 BKN150
     FM240100 19007KT P6SM BKN015=

USA.gov is the U.S. government's official web portal to all federal, state and local government web resources and services.